sensor_id;sensor_type;location;lat;lon;timestamp;pressure;altitude;pressure_sealevel;temperature;humidity
35903;BME280;50775;44.112;12.316;2022-08-03T00:01:36;101293.91;;;28.70;50.06
35903;BME280;50775;44.112;12.316;2022-08-03T00:04:02;101302.50;;;28.74;49.73
35903;BME280;50775;44.112;12.316;2022-08-03T00:06:28;101294.38;;;28.74;50.02
35903;BME280;50775;44.112;12.316;2022-08-03T00:08:54;101301.22;;;28.70;50.20
35903;BME280;50775;44.112;12.316;2022-08-03T00:11:19;101294.38;;;28.74;49.96
35903;BME280;50775;44.112;12.316;2022-08-03T00:13:45;101298.13;;;28.73;49.83
35903;BME280;50775;44.112;12.316;2022-08-03T00:16:10;101301.50;;;28.75;49.73
35903;BME280;50775;44.112;12.316;2022-08-03T00:18:36;101296.94;;;28.75;50.01
35903;BME280;50775;44.112;12.316;2022-08-03T00:21:02;101298.13;;;28.73;49.68
35903;BME280;50775;44.112;12.316;2022-08-03T00:23:28;101305.16;;;28.67;49.95
35903;BME280;50775;44.112;12.316;2022-08-03T00:25:53;101294.50;;;28.65;50.09
35903;BME280;50775;44.112;12.316;2022-08-03T00:28:19;101301.41;;;28.68;49.90
35903;BME280;50775;44.112;12.316;2022-08-03T00:30:44;101297.66;;;28.69;49.89
35903;BME280;50775;44.112;12.316;2022-08-03T00:33:10;101298.50;;;28.70;50.17
35903;BME280;50775;44.112;12.316;2022-08-03T00:35:35;101295.34;;;28.66;50.00
35903;BME280;50775;44.112;12.316;2022-08-03T00:38:00;101293.19;;;28.61;50.30
35903;BME280;50775;44.112;12.316;2022-08-03T00:40:26;101297.00;;;28.67;50.04
35903;BME280;50775;44.112;12.316;2022-08-03T00:42:55;101303.28;;;28.67;50.01
35903;BME280;50775;44.112;12.316;2022-08-03T00:45:22;101306.63;;;28.70;50.06
35903;BME280;50775;44.112;12.316;2022-08-03T00:47:48;101300.38;;;28.69;49.73
35903;BME280;50775;44.112;12.316;2022-08-03T00:50:14;101307.47;;;28.70;49.70
35903;BME280;50775;44.112;12.316;2022-08-03T00:52:39;101302.06;;;28.70;49.69
35903;BME280;50775;44.112;12.316;2022-08-03T00:55:05;101298.59;;;28.61;49.92
35903;BME280;50775;44.112;12.316;2022-08-03T00:57:31;101292.44;;;28.67;49.77
35903;BME280;50775;44.112;12.316;2022-08-03T00:59:57;101293.28;;;28.68;49.92
35903;BME280;50775;44.112;12.316;2022-08-03T01:02:24;101299.53;;;28.68;49.77
35903;BME280;50775;44.112;12.316;2022-08-03T01:04:50;101294.50;;;28.65;49.75
35903;BME280;50775;44.112;12.316;2022-08-03T01:10:19;101295.53;;;28.64;50.03
35903;BME280;50775;44.112;12.316;2022-08-03T01:15:45;101290.09;;;28.64;49.74
35903;BME280;50775;44.112;12.316;2022-08-03T01:18:19;101295.72;;;28.63;50.16
35903;BME280;50775;44.112;12.316;2022-08-03T01:20:47;101300.09;;;28.64;50.21
35903;BME280;50775;44.112;12.316;2022-08-03T01:31:10;101295.63;;;28.56;49.98
35903;BME280;50775;44.112;12.316;2022-08-03T01:33:41;101289.25;;;28.49;50.09
35903;BME280;50775;44.112;12.316;2022-08-03T01:36:15;101289.38;;;28.56;49.94
35903;BME280;50775;44.112;12.316;2022-08-03T01:38:43;101290.94;;;28.50;50.21
35903;BME280;50775;44.112;12.316;2022-08-03T01:41:11;101293.75;;;28.42;50.28
35903;BME280;50775;44.112;12.316;2022-08-03T01:43:38;101293.63;;;28.50;50.09
35903;BME280;50775;44.112;12.316;2022-08-03T01:46:05;101292.06;;;28.56;50.27
35903;BME280;50775;44.112;12.316;2022-08-03T01:48:31;101286.00;;;28.54;50.36
35903;BME280;50775;44.112;12.316;2022-08-03T01:50:57;101282.66;;;28.52;50.28
35903;BME280;50775;44.112;12.316;2022-08-03T01:53:24;101286.66;;;28.56;50.34
35903;BME280;50775;44.112;12.316;2022-08-03T01:55:51;101288.34;;;28.57;50.18
35903;BME280;50775;44.112;12.316;2022-08-03T01:58:18;101286.47;;;28.57;50.11
35903;BME280;50775;44.112;12.316;2022-08-03T02:00:45;101286.34;;;28.51;50.03
35903;BME280;50775;44.112;12.316;2022-08-03T02:03:11;101286.72;;;28.48;50.12
35903;BME280;50775;44.112;12.316;2022-08-03T02:05:40;101296.06;;;28.45;50.17
35903;BME280;50775;44.112;12.316;2022-08-03T02:08:07;101287.38;;;28.50;49.91
35903;BME280;50775;44.112;12.316;2022-08-03T02:10:35;101296.84;;;28.54;50.14
35903;BME280;50775;44.112;12.316;2022-08-03T02:13:02;101295.69;;;28.48;49.99
35903;BME280;50775;44.112;12.316;2022-08-03T02:15:28;101293.19;;;28.32;50.89
35903;BME280;50775;44.112;12.316;2022-08-03T02:17:54;101299.66;;;28.23;51.15
35903;BME280;50775;44.112;12.316;2022-08-03T02:20:21;101295.34;;;28.36;50.61
35903;BME280;50775;44.112;12.316;2022-08-03T02:22:46;101301.84;;;28.27;50.62
35903;BME280;50775;44.112;12.316;2022-08-03T02:25:13;101295.28;;;28.22;51.07
35903;BME280;50775;44.112;12.316;2022-08-03T02:27:48;101292.09;;;28.18;50.84
35903;BME280;50775;44.112;12.316;2022-08-03T02:30:15;101295.41;;;28.28;50.58
35903;BME280;50775;44.112;12.316;2022-08-03T02:32:41;101298.09;;;28.28;50.79
35903;BME280;50775;44.112;12.316;2022-08-03T02:35:08;101297.41;;;28.12;51.02
35903;BME280;50775;44.112;12.316;2022-08-03T02:37:36;101295.59;;;28.27;50.62
35903;BME280;50775;44.112;12.316;2022-08-03T02:40:04;101298.09;;;28.28;50.47
35903;BME280;50775;44.112;12.316;2022-08-03T02:42:32;101294.31;;;28.38;50.28
35903;BME280;50775;44.112;12.316;2022-08-03T02:44:59;101292.91;;;28.42;50.14
35903;BME280;50775;44.112;12.316;2022-08-03T02:47:26;101288.97;;;28.44;50.24
35903;BME280;50775;44.112;12.316;2022-08-03T02:49:53;101283.38;;;28.46;49.95
35903;BME280;50775;44.112;12.316;2022-08-03T02:52:20;101290.28;;;28.48;49.77
35903;BME280;50775;44.112;12.316;2022-08-03T02:54:47;101282.53;;;28.45;50.17
35903;BME280;50775;44.112;12.316;2022-08-03T02:57:13;101290.47;;;28.47;50.15
35903;BME280;50775;44.112;12.316;2022-08-03T02:59:39;101292.34;;;28.46;49.90
35903;BME280;50775;44.112;12.316;2022-08-03T03:02:06;101286.91;;;28.46;49.87
35903;BME280;50775;44.112;12.316;2022-08-03T03:04:33;101279.63;;;28.47;49.85
35903;BME280;50775;44.112;12.316;2022-08-03T03:06:59;101287.09;;;28.45;49.89
35903;BME280;50775;44.112;12.316;2022-08-03T03:09:25;101284.41;;;28.45;50.15
35903;BME280;50775;44.112;12.316;2022-08-03T03:11:50;101280.84;;;28.44;49.84
35903;BME280;50775;44.112;12.316;2022-08-03T03:14:17;101280.00;;;28.44;49.85
35903;BME280;50775;44.112;12.316;2022-08-03T03:16:43;101288.31;;;28.42;49.89
35903;BME280;50775;44.112;12.316;2022-08-03T03:19:10;101288.03;;;28.37;50.41
35903;BME280;50775;44.112;12.316;2022-08-03T03:21:36;101291.50;;;28.31;50.49
35903;BME280;50775;44.112;12.316;2022-08-03T03:24:02;101290.09;;;28.35;50.51
35903;BME280;50775;44.112;12.316;2022-08-03T03:26:27;101282.22;;;28.25;50.49
35903;BME280;50775;44.112;12.316;2022-08-03T03:28:53;101289.66;;;28.23;50.73
35903;BME280;50775;44.112;12.316;2022-08-03T03:31:19;101294.56;;;28.28;50.62
35903;BME280;50775;44.112;12.316;2022-08-03T03:33:44;101287.16;;;28.22;50.73
35903;BME280;50775;44.112;12.316;2022-08-03T03:36:10;101287.97;;;28.22;50.47
35903;BME280;50775;44.112;12.316;2022-08-03T03:38:35;101295.91;;;28.24;50.75
35903;BME280;50775;44.112;12.316;2022-08-03T03:41:01;101292.03;;;28.26;50.41
35903;BME280;50775;44.112;12.316;2022-08-03T03:43:27;101295.09;;;28.23;50.30
35903;BME280;50775;44.112;12.316;2022-08-03T03:45:53;101301.84;;;28.27;50.21
35903;BME280;50775;44.112;12.316;2022-08-03T03:48:19;101299.81;;;28.29;50.50
35903;BME280;50775;44.112;12.316;2022-08-03T03:50:45;101302.81;;;28.34;49.95
35903;BME280;50775;44.112;12.316;2022-08-03T03:53:13;101299.13;;;28.27;50.45
35903;BME280;50775;44.112;12.316;2022-08-03T03:55:39;101304.88;;;28.32;50.07
35903;BME280;50775;44.112;12.316;2022-08-03T03:58:05;101297.94;;;28.30;50.36
35903;BME280;50775;44.112;12.316;2022-08-03T04:00:31;101300.59;;;28.15;50.70
35903;BME280;50775;44.112;12.316;2022-08-03T04:02:57;101303.19;;;28.09;50.66
35903;BME280;50775;44.112;12.316;2022-08-03T04:05:22;101295.25;;;28.07;50.74
35903;BME280;50775;44.112;12.316;2022-08-03T04:08:08;101306.56;;;28.11;50.47
35903;BME280;50775;44.112;12.316;2022-08-03T04:11:00;101304.94;;;28.01;50.76
35903;BME280;50775;44.112;12.316;2022-08-03T04:13:34;101301.03;;;28.04;50.69
35903;BME280;50775;44.112;12.316;2022-08-03T04:16:01;101313.13;;;27.93;51.18
35903;BME280;50775;44.112;12.316;2022-08-03T04:18:28;101313.81;;;27.95;51.25
35903;BME280;50775;44.112;12.316;2022-08-03T04:20:55;101315.94;;;28.00;51.00
35903;BME280;50775;44.112;12.316;2022-08-03T04:23:23;101315.13;;;27.99;50.95
35903;BME280;50775;44.112;12.316;2022-08-03T04:25:50;101311.97;;;28.11;50.38
35903;BME280;50775;44.112;12.316;2022-08-03T04:28:16;101314.97;;;28.16;50.61
35903;BME280;50775;44.112;12.316;2022-08-03T04:30:44;101310.78;;;28.13;50.36
35903;BME280;50775;44.112;12.316;2022-08-03T04:33:12;101311.25;;;28.17;50.40
35903;BME280;50775;44.112;12.316;2022-08-03T04:35:38;101313.19;;;28.23;50.25
35903;BME280;50775;44.112;12.316;2022-08-03T04:38:05;101315.38;;;28.27;49.90
35903;BME280;50775;44.112;12.316;2022-08-03T04:40:32;101310.16;;;28.26;50.21
35903;BME280;50775;44.112;12.316;2022-08-03T04:42:58;101316.47;;;28.18;50.19
35903;BME280;50775;44.112;12.316;2022-08-03T04:45:24;101314.72;;;28.25;50.20
35903;BME280;50775;44.112;12.316;2022-08-03T04:47:51;101321.00;;;28.26;50.33
35903;BME280;50775;44.112;12.316;2022-08-03T04:50:16;101318.94;;;28.28;49.97
35903;BME280;50775;44.112;12.316;2022-08-03T04:52:42;101324.72;;;28.25;49.97
35903;BME280;50775;44.112;12.316;2022-08-03T04:55:08;101320.31;;;28.24;50.06
35903;BME280;50775;44.112;12.316;2022-08-03T04:57:34;101330.16;;;28.25;50.36
35903;BME280;50775;44.112;12.316;2022-08-03T04:59:59;101325.03;;;28.30;49.96
35903;BME280;50775;44.112;12.316;2022-08-03T05:02:24;101326.75;;;28.23;50.49
35903;BME280;50775;44.112;12.316;2022-08-03T05:04:50;101334.00;;;28.30;49.90
35903;BME280;50775;44.112;12.316;2022-08-03T05:07:16;101337.84;;;28.36;49.77
35903;BME280;50775;44.112;12.316;2022-08-03T05:09:42;101341.19;;;28.38;50.04
35903;BME280;50775;44.112;12.316;2022-08-03T05:12:07;101342.03;;;28.39;49.90
35903;BME280;50775;44.112;12.316;2022-08-03T05:14:33;101341.47;;;28.43;49.57
35903;BME280;50775;44.112;12.316;2022-08-03T05:17:00;101332.13;;;28.46;49.99
35903;BME280;50775;44.112;12.316;2022-08-03T05:19:25;101340.63;;;28.43;50.03
35903;BME280;50775;44.112;12.316;2022-08-03T05:21:51;101341.94;;;28.47;49.85
35903;BME280;50775;44.112;12.316;2022-08-03T05:24:16;101342.59;;;28.49;49.65
35903;BME280;50775;44.112;12.316;2022-08-03T05:26:41;101342.25;;;28.52;49.59
35903;BME280;50775;44.112;12.316;2022-08-03T05:29:07;101341.88;;;28.55;49.58
35903;BME280;50775;44.112;12.316;2022-08-03T05:31:32;101340.19;;;28.54;49.90
35903;BME280;50775;44.112;12.316;2022-08-03T05:33:58;101344.22;;;28.58;49.58
35903;BME280;50775;44.112;12.316;2022-08-03T05:36:23;101342.53;;;28.57;49.53
35903;BME280;50775;44.112;12.316;2022-08-03T05:38:49;101340.28;;;28.60;49.84
35903;BME280;50775;44.112;12.316;2022-08-03T05:41:14;101343.66;;;28.62;49.61
35903;BME280;50775;44.112;12.316;2022-08-03T05:43:40;101343.28;;;28.65;49.71
35903;BME280;50775;44.112;12.316;2022-08-03T05:46:05;101344.56;;;28.70;49.37
35903;BME280;50775;44.112;12.316;2022-08-03T05:48:30;101335.41;;;28.71;49.69
35903;BME280;50775;44.112;12.316;2022-08-03T05:50:56;101338.78;;;28.73;49.61
35903;BME280;50775;44.112;12.316;2022-08-03T05:53:21;101336.91;;;28.73;49.41
35903;BME280;50775;44.112;12.316;2022-08-03T05:55:47;101340.56;;;28.65;49.64
35903;BME280;50775;44.112;12.316;2022-08-03T05:58:12;101342.53;;;28.72;50.08
35903;BME280;50775;44.112;12.316;2022-08-03T06:00:37;101338.44;;;28.76;49.78
35903;BME280;50775;44.112;12.316;2022-08-03T06:03:03;101338.06;;;28.79;49.45
35903;BME280;50775;44.112;12.316;2022-08-03T06:05:29;101336.84;;;28.81;49.32
35903;BME280;50775;44.112;12.316;2022-08-03T06:07:55;101339.34;;;28.83;49.83
35903;BME280;50775;44.112;12.316;2022-08-03T06:10:21;101341.03;;;28.84;49.83
35903;BME280;50775;44.112;12.316;2022-08-03T06:12:46;101348.16;;;28.85;49.48
35903;BME280;50775;44.112;12.316;2022-08-03T06:15:13;101344.25;;;28.87;49.49
35903;BME280;50775;44.112;12.316;2022-08-03T06:17:49;101347.88;;;28.80;49.94
35903;BME280;50775;44.112;12.316;2022-08-03T06:20:15;101349.00;;;28.85;49.42
35903;BME280;50775;44.112;12.316;2022-08-03T06:22:41;101340.50;;;28.88;49.66
35903;BME280;50775;44.112;12.316;2022-08-03T06:25:07;101347.78;;;28.88;50.20
35903;BME280;50775;44.112;12.316;2022-08-03T06:27:32;101349.16;;;28.84;49.73
35903;BME280;50775;44.112;12.316;2022-08-03T06:29:58;101344.91;;;28.89;50.02
35903;BME280;50775;44.112;12.316;2022-08-03T06:32:23;101356.13;;;28.86;49.64
35903;BME280;50775;44.112;12.316;2022-08-03T06:34:48;101356.59;;;28.90;49.91
35903;BME280;50775;44.112;12.316;2022-08-03T06:37:14;101358.25;;;28.91;49.96
35903;BME280;50775;44.112;12.316;2022-08-03T06:39:39;101365.38;;;28.92;49.61
35903;BME280;50775;44.112;12.316;2022-08-03T06:42:05;101358.91;;;28.93;49.58
35903;BME280;50775;44.112;12.316;2022-08-03T06:44:30;101357.22;;;28.92;49.83
35903;BME280;50775;44.112;12.316;2022-08-03T06:46:56;101366.78;;;28.88;50.01
35903;BME280;50775;44.112;12.316;2022-08-03T06:49:22;101371.06;;;28.82;50.29
35903;BME280;50775;44.112;12.316;2022-08-03T06:51:48;101364.78;;;28.82;50.04
35903;BME280;50775;44.112;12.316;2022-08-03T06:54:16;101369.44;;;28.73;50.16
35903;BME280;50775;44.112;12.316;2022-08-03T06:56:42;101365.63;;;28.82;49.91
35903;BME280;50775;44.112;12.316;2022-08-03T06:59:07;101372.00;;;28.89;49.84
35903;BME280;50775;44.112;12.316;2022-08-03T07:01:33;101371.34;;;28.87;49.59
35903;BME280;50775;44.112;12.316;2022-08-03T07:03:58;101376.66;;;28.81;49.69
35903;BME280;50775;44.112;12.316;2022-08-03T07:06:24;101370.28;;;28.74;49.35
35903;BME280;50775;44.112;12.316;2022-08-03T07:08:50;101374.78;;;28.81;49.34
35903;BME280;50775;44.112;12.316;2022-08-03T07:11:15;101382.38;;;28.86;49.31
35903;BME280;50775;44.112;12.316;2022-08-03T07:13:40;101381.44;;;28.79;49.30
35903;BME280;50775;44.112;12.316;2022-08-03T07:16:06;101377.94;;;28.70;48.94
35903;BME280;50775;44.112;12.316;2022-08-03T07:18:31;101379.09;;;28.76;49.05
35903;BME280;50775;44.112;12.316;2022-08-03T07:20:57;101379.75;;;28.78;49.02
35903;BME280;50775;44.112;12.316;2022-08-03T07:23:22;101384.13;;;28.79;49.15
35903;BME280;50775;44.112;12.316;2022-08-03T07:25:49;101380.13;;;28.75;49.39
35903;BME280;50775;44.112;12.316;2022-08-03T07:28:15;101386.84;;;28.79;49.17
35903;BME280;50775;44.112;12.316;2022-08-03T07:30:40;101384.59;;;28.82;48.79
35903;BME280;50775;44.112;12.316;2022-08-03T07:33:05;101385.25;;;28.84;49.20
35903;BME280;50775;44.112;12.316;2022-08-03T07:35:31;101376.28;;;28.84;48.83
35903;BME280;50775;44.112;12.316;2022-08-03T07:37:56;101376.28;;;28.84;49.23
35903;BME280;50775;44.112;12.316;2022-08-03T07:40:22;101374.78;;;28.81;49.27
35903;BME280;50775;44.112;12.316;2022-08-03T07:42:47;101378.53;;;28.80;49.09
35903;BME280;50775;44.112;12.316;2022-08-03T07:45:13;101382.66;;;28.76;49.03
35903;BME280;50775;44.112;12.316;2022-08-03T07:47:38;101374.50;;;28.76;48.80
35903;BME280;50775;44.112;12.316;2022-08-03T07:50:04;101378.91;;;28.77;48.63
35903;BME280;50775;44.112;12.316;2022-08-03T07:52:30;101380.59;;;28.78;49.06
35903;BME280;50775;44.112;12.316;2022-08-03T07:55:14;101381.81;;;28.76;48.79
35903;BME280;50775;44.112;12.316;2022-08-03T07:57:41;101385.25;;;28.70;48.50
35903;BME280;50775;44.112;12.316;2022-08-03T08:00:10;101385.88;;;28.72;48.78
35903;BME280;50775;44.112;12.316;2022-08-03T08:02:36;101385.88;;;28.72;48.66
35903;BME280;50775;44.112;12.316;2022-08-03T08:05:02;101379.44;;;28.73;48.54
35903;BME280;50775;44.112;12.316;2022-08-03T08:07:27;101374.69;;;28.75;48.34
35903;BME280;50775;44.112;12.316;2022-08-03T08:09:53;101380.13;;;28.75;48.85
35903;BME280;50775;44.112;12.316;2022-08-03T08:12:18;101384.88;;;28.73;48.36
35903;BME280;50775;44.112;12.316;2022-08-03T08:14:44;101382.16;;;28.73;48.50
35903;BME280;50775;44.112;12.316;2022-08-03T08:17:12;101385.06;;;28.71;48.18
35903;BME280;50775;44.112;12.316;2022-08-03T08:19:38;101384.22;;;28.71;48.49
35903;BME280;50775;44.112;12.316;2022-08-03T08:22:03;101385.53;;;28.75;48.06
35903;BME280;50775;44.112;12.316;2022-08-03T08:24:30;101376.38;;;28.76;47.16
35903;BME280;50775;44.112;12.316;2022-08-03T08:26:58;101380.13;;;28.75;47.54
35903;BME280;50775;44.112;12.316;2022-08-03T08:29:24;101381.97;;;28.74;47.92
35903;BME280;50775;44.112;12.316;2022-08-03T08:31:49;101382.66;;;28.76;47.82
35903;BME280;50775;44.112;12.316;2022-08-03T08:34:15;101376.38;;;28.76;48.03
35903;BME280;50775;44.112;12.316;2022-08-03T08:36:40;101373.00;;;28.74;48.13
35903;BME280;50775;44.112;12.316;2022-08-03T08:39:06;101381.81;;;28.76;47.75
35903;BME280;50775;44.112;12.316;2022-08-03T08:41:32;101383.13;;;28.80;47.53
35903;BME280;50775;44.112;12.316;2022-08-03T08:44:01;101378.53;;;28.80;47.65
35903;BME280;50775;44.112;12.316;2022-08-03T08:46:26;101384.13;;;28.79;47.41
35903;BME280;50775;44.112;12.316;2022-08-03T08:48:54;101385.34;;;28.76;47.17
35903;BME280;50775;44.112;12.316;2022-08-03T08:51:21;101380.97;;;28.75;46.97
35903;BME280;50775;44.112;12.316;2022-08-03T08:53:48;101379.94;;;28.76;46.79
35903;BME280;50775;44.112;12.316;2022-08-03T08:56:15;101384.34;;;28.77;46.80
35903;BME280;50775;44.112;12.316;2022-08-03T08:58:43;101370.78;;;28.77;47.29
35903;BME280;50775;44.112;12.316;2022-08-03T09:01:11;101383.50;;;28.77;46.57
35903;BME280;50775;44.112;12.316;2022-08-03T09:03:36;101379.09;;;28.76;47.03
35903;BME280;50775;44.112;12.316;2022-08-03T09:06:02;101382.66;;;28.76;46.77
35903;BME280;50775;44.112;12.316;2022-08-03T09:08:28;101391.25;;;28.80;46.69
35903;BME280;50775;44.112;12.316;2022-08-03T09:10:54;101387.88;;;28.78;47.19
35903;BME280;50775;44.112;12.316;2022-08-03T09:13:21;101387.22;;;28.76;46.18
35903;BME280;50775;44.112;12.316;2022-08-03T09:15:46;101374.31;;;28.78;46.67
35903;BME280;50775;44.112;12.316;2022-08-03T09:18:22;101385.53;;;28.75;46.73
35903;BME280;50775;44.112;12.316;2022-08-03T09:20:52;101382.66;;;28.76;46.85
35903;BME280;50775;44.112;12.316;2022-08-03T09:23:43;101378.53;;;28.80;46.65
35903;BME280;50775;44.112;12.316;2022-08-03T09:26:09;101374.59;;;28.83;46.38
35903;BME280;50775;44.112;12.316;2022-08-03T09:28:35;101372.91;;;28.82;45.53
35903;BME280;50775;44.112;12.316;2022-08-03T09:31:00;101379.38;;;28.81;45.73
35903;BME280;50775;44.112;12.316;2022-08-03T09:33:26;101375.81;;;28.80;45.92
35903;BME280;50775;44.112;12.316;2022-08-03T09:35:52;101377.31;;;28.83;45.55
35903;BME280;50775;44.112;12.316;2022-08-03T09:38:21;101374.78;;;28.81;45.24
35903;BME280;50775;44.112;12.316;2022-08-03T09:40:51;101368.06;;;28.77;45.10
35903;BME280;50775;44.112;12.316;2022-08-03T09:43:17;101375.53;;;28.75;45.90
35903;BME280;50775;44.112;12.316;2022-08-03T09:45:43;101376.38;;;28.76;46.12
35903;BME280;50775;44.112;12.316;2022-08-03T09:48:25;101371.13;;;28.74;46.26
35903;BME280;50775;44.112;12.316;2022-08-03T09:50:52;101367.41;;;28.75;45.99
35903;BME280;50775;44.112;12.316;2022-08-03T09:53:18;101372.66;;;28.77;45.58
35903;BME280;50775;44.112;12.316;2022-08-03T09:55:50;101365.53;;;28.76;45.63
35903;BME280;50775;44.112;12.316;2022-08-03T09:58:16;101366.19;;;28.78;45.04
35903;BME280;50775;44.112;12.316;2022-08-03T10:01:01;101366.19;;;28.78;45.47
35903;BME280;50775;44.112;12.316;2022-08-03T10:03:29;101374.97;;;28.80;45.22
35903;BME280;50775;44.112;12.316;2022-08-03T10:05:55;101363.47;;;28.78;45.25
35903;BME280;50775;44.112;12.316;2022-08-03T10:08:20;101362.66;;;28.77;44.91
35903;BME280;50775;44.112;12.316;2022-08-03T10:10:47;101353.66;;;28.77;45.37
35903;BME280;50775;44.112;12.316;2022-08-03T10:13:13;101351.81;;;28.77;45.33
35903;BME280;50775;44.112;12.316;2022-08-03T10:15:39;101353.84;;;28.75;45.63
35903;BME280;50775;44.112;12.316;2022-08-03T10:18:05;101353.03;;;28.75;45.67
35903;BME280;50775;44.112;12.316;2022-08-03T10:20:32;101345.72;;;28.75;45.70
35903;BME280;50775;44.112;12.316;2022-08-03T10:23:00;101345.72;;;28.75;45.56
35903;BME280;50775;44.112;12.316;2022-08-03T10:25:28;101349.28;;;28.76;45.52
35903;BME280;50775;44.112;12.316;2022-08-03T10:27:54;101343.84;;;28.76;45.78
35903;BME280;50775;44.112;12.316;2022-08-03T10:30:21;101340.13;;;28.77;45.61
35903;BME280;50775;44.112;12.316;2022-08-03T10:35:15;101333.84;;;28.76;45.27
35903;BME280;50775;44.112;12.316;2022-08-03T10:37:41;101326.56;;;28.77;45.73
35903;BME280;50775;44.112;12.316;2022-08-03T10:40:14;101328.25;;;28.78;45.28
35903;BME280;50775;44.112;12.316;2022-08-03T10:42:40;101325.53;;;28.78;45.11
35903;BME280;50775;44.112;12.316;2022-08-03T10:45:08;101321.97;;;28.77;44.99
35903;BME280;50775;44.112;12.316;2022-08-03T10:47:37;101312.81;;;28.78;45.20
35903;BME280;50775;44.112;12.316;2022-08-03T10:50:04;101323.47;;;28.80;45.11
35903;BME280;50775;44.112;12.316;2022-08-03T10:52:30;101323.47;;;28.80;44.97
35903;BME280;50775;44.112;12.316;2022-08-03T10:54:56;101314.69;;;28.78;45.30
35903;BME280;50775;44.112;12.316;2022-08-03T10:57:50;101313.00;;;28.77;45.35
35903;BME280;50775;44.112;12.316;2022-08-03T11:00:23;101317.22;;;28.79;44.96
35903;BME280;50775;44.112;12.316;2022-08-03T11:03:02;101315.34;;;28.80;44.88
35903;BME280;50775;44.112;12.316;2022-08-03T11:05:49;101309.72;;;28.81;44.68
35903;BME280;50775;44.112;12.316;2022-08-03T11:08:21;101311.59;;;28.81;44.58
35903;BME280;50775;44.112;12.316;2022-08-03T11:10:47;101312.44;;;28.81;44.64
35903;BME280;50775;44.112;12.316;2022-08-03T11:13:16;101304.31;;;28.81;44.49
35903;BME280;50775;44.112;12.316;2022-08-03T11:15:43;101309.34;;;28.84;44.30
35903;BME280;50775;44.112;12.316;2022-08-03T11:18:09;101302.25;;;28.83;44.41
35903;BME280;50775;44.112;12.316;2022-08-03T11:20:54;101307.84;;;28.82;44.25
35903;BME280;50775;44.112;12.316;2022-08-03T11:23:39;101298.69;;;28.83;44.44
35903;BME280;50775;44.112;12.316;2022-08-03T11:26:12;101301.59;;;28.81;43.92
35903;BME280;50775;44.112;12.316;2022-08-03T11:28:38;101301.78;;;28.80;44.28
35903;BME280;50775;44.112;12.316;2022-08-03T11:31:46;101304.13;;;28.83;43.58
35903;BME280;50775;44.112;12.316;2022-08-03T11:34:03;101300.38;;;28.84;43.95
35903;BME280;50775;44.112;12.316;2022-08-03T11:36:29;101294.31;;;28.82;43.93
35903;BME280;50775;44.112;12.316;2022-08-03T11:39:16;101294.31;;;28.82;44.00
35903;BME280;50775;44.112;12.316;2022-08-03T11:41:41;101292.63;;;28.81;43.91
35903;BME280;50775;44.112;12.316;2022-08-03T11:44:07;101297.19;;;28.80;43.97
35903;BME280;50775;44.112;12.316;2022-08-03T11:46:36;101293.47;;;28.81;43.52
35903;BME280;50775;44.112;12.316;2022-08-03T11:49:03;101287.19;;;28.81;44.00
35903;BME280;50775;44.112;12.316;2022-08-03T11:51:29;101292.63;;;28.81;44.11
35903;BME280;50775;44.112;12.316;2022-08-03T11:54:02;101287.19;;;28.81;43.71
35903;BME280;50775;44.112;12.316;2022-08-03T11:56:28;101293.47;;;28.81;44.10
35903;BME280;50775;44.112;12.316;2022-08-03T11:58:56;101285.97;;;28.83;43.89
35903;BME280;50775;44.112;12.316;2022-08-03T12:01:23;101287.84;;;28.83;43.35
35903;BME280;50775;44.112;12.316;2022-08-03T12:03:49;101288.03;;;28.81;43.85
35903;BME280;50775;44.112;12.316;2022-08-03T12:06:16;101282.44;;;28.83;43.16
35903;BME280;50775;44.112;12.316;2022-08-03T12:08:42;101283.25;;;28.83;43.52
35903;BME280;50775;44.112;12.316;2022-08-03T12:11:09;101279.72;;;28.83;43.51
35903;BME280;50775;44.112;12.316;2022-08-03T12:13:35;101280.75;;;28.82;43.22
35903;BME280;50775;44.112;12.316;2022-08-03T12:16:01;101281.59;;;28.82;43.27
35903;BME280;50775;44.112;12.316;2022-08-03T12:18:27;101285.13;;;28.83;43.02
35903;BME280;50775;44.112;12.316;2022-08-03T12:20:54;101280.38;;;28.85;42.91
35903;BME280;50775;44.112;12.316;2022-08-03T12:23:27;101285.13;;;28.83;42.92
35903;BME280;50775;44.112;12.316;2022-08-03T12:25:53;101281.41;;;28.84;42.61
35903;BME280;50775;44.112;12.316;2022-08-03T12:28:25;101277.84;;;28.83;42.95
35903;BME280;50775;44.112;12.316;2022-08-03T12:30:51;101284.09;;;28.84;43.00
35903;BME280;50775;44.112;12.316;2022-08-03T12:33:25;101279.53;;;28.84;42.75
35903;BME280;50775;44.112;12.316;2022-08-03T12:36:04;101283.06;;;28.85;42.54
35903;BME280;50775;44.112;12.316;2022-08-03T12:38:31;101275.97;;;28.84;42.33
35903;BME280;50775;44.112;12.316;2022-08-03T12:40:58;101278.53;;;28.85;42.25
35903;BME280;50775;44.112;12.316;2022-08-03T12:43:24;101274.09;;;28.84;42.45
35903;BME280;50775;44.112;12.316;2022-08-03T12:45:49;101281.03;;;28.87;42.99
35903;BME280;50775;44.112;12.316;2022-08-03T12:48:15;101283.06;;;28.85;43.20
35903;BME280;50775;44.112;12.316;2022-08-03T12:50:40;101281.41;;;28.84;43.68
35903;BME280;50775;44.112;12.316;2022-08-03T12:53:06;101279.53;;;28.84;43.35
35903;BME280;50775;44.112;12.316;2022-08-03T12:55:32;101269.72;;;28.83;43.83
35903;BME280;50775;44.112;12.316;2022-08-03T12:58:05;101270.56;;;28.84;43.49